Tayma — 9HA2989 — position and weather

sailwx.info

Track history (hours):
 
Tides and Currents Weather Stations Pressure Air Temp Water Temp Dewpoint Dewpoint Depression Visibility Wind Speed Wind Dir Waves Ship Positions

Tayma

Last reported at 2018-Apr-09 12:54 UTC. Time now 2018-Apr-25 02:53 UTC.
Position N 36°08' E 015°12'.
Warning: this ship's position is 15 days out of date.

Length 365 m; draft 11.4 m.

Type: Ship (hazmat cat A). MMSI: 229009000.

Date/timePositionNaut miles runAvg speedWind from/ knotsBaromVisibWave heightAir tempDewpointWater temp
2018-Apr-09 12:54N 36°08' E 015°12'717.2
2018-Apr-09 12:30N 36°10' E 015°03'817.0
2018-Apr-09 12:00N 36°13' E 014°53'916.9
2018-Apr-09 11:30N 36°15' E 014°43'816.9
2018-Apr-09 11:00N 36°18' E 014°33'816.7
2018-Apr-09 10:30N 36°20' E 014°23'816.8
2018-Apr-09 10:00N 36°23' E 014°14'816.9
2018-Apr-09 09:30N 36°25' E 014°04'816.8
2018-Apr-09 09:00N 36°28' E 013°54'916.7
2018-Apr-09 08:29N 36°30' E 013°43'916.7
2018-Apr-09 07:58N 36°33' E 013°33'  
2018-Apr-07 00:43N 36°02' W 004°60'416.3
2018-Apr-07 00:29N 36°01' W 005°04'918.4
2018-Apr-07 00:00N 35°60' W 005°15'918.8
2018-Apr-06 23:30N 35°58' W 005°26'86417.0
2018-Apr-04 20:42N 37°18' W 023°18'317.3
2018-Apr-04 20:30N 37°18' W 023°22'917.3
2018-Apr-04 20:00N 37°19' W 023°33'816.6
2018-Apr-04 19:30N 37°20' W 023°43'917.1
2018-Apr-04 19:00N 37°20' W 023°54'816.9
2018-Apr-04 18:30N 37°21' W 024°05'816.8
2018-Apr-04 18:00N 37°22' W 024°15'817.0
2018-Apr-04 17:30N 37°22' W 024°26'917.2
2018-Apr-04 17:00N 37°23' W 024°37'918.0
2018-Apr-04 16:30N 37°24' W 024°48'917.5
2018-Apr-04 16:00N 37°24' W 024°59'816.4
2018-Apr-04 15:30N 37°24' W 025°10'816.7
2018-Apr-04 15:00N 37°24' W 025°20'817.0
2018-Apr-04 14:30N 37°25' W 025°31'816.7
2018-Apr-04 14:00N 37°25' W 025°41'816.7
2018-Apr-04 13:30N 37°25' W 025°52'816.7
2018-Apr-04 13:00N 37°26' W 026°02'816.3
2018-Apr-04 12:31N 37°26' W 026°12'916.5
2018-Apr-04 11:59N 37°26' W 026°23'816.4
2018-Apr-04 11:30N 37°26' W 026°33'2616.8
2018-Apr-04 09:59N 37°27' W 027°05'1016.9
2018-Apr-04 09:24N 37°27' W 027°18'717.1
2018-Apr-04 09:00N 37°27' W 027°26'917.8
2018-Apr-04 08:30N 37°28' W 027°38'917.5
2018-Apr-04 08:00N 37°28' W 027°49'917.4
2018-Apr-04 07:30N 37°28' W 027°59'917.7
2018-Apr-04 07:00N 37°29' W 028°11'917.7
2018-Apr-04 06:30N 37°29' W 028°22'917.5
2018-Apr-04 06:00N 37°29' W 028°33'917.6
2018-Apr-04 05:31N 37°29' W 028°44'917.4
2018-Apr-04 05:00N 37°30' W 028°55'917.3
2018-Apr-04 04:30N 37°30' W 029°06'917.2
2018-Apr-04 03:59N 37°31' W 029°17'817.4
2018-Apr-04 03:30N 37°31' W 029°28'917.3
2018-Apr-04 03:01N 37°31' W 029°38'917.4
2018-Apr-04 02:30N 37°31' W 029°50'917.6
2018-Apr-04 01:58N 37°32' W 030°01'817.2
2018-Apr-04 01:30N 37°32' W 030°11'  
Track history (hours):
 
Tides and Currents Weather Stations Pressure Air Temp Water Temp Dewpoint Dewpoint Depression Visibility Wind Speed Wind Dir Waves Ship Positions

Tayma

Last reported at 2018-Apr-09 12:54 UTC. Time now 2018-Apr-25 02:53 UTC.
Position N 36°08' E 015°12'.
Warning: this ship's position is 15 days out of date.

Length 365 m; draft 11.4 m.

Type: Ship (hazmat cat A). MMSI: 229009000.

Date/timePositionNaut miles runAvg speedWind from/ knotsBaromVisibWave heightAir tempDewpointWater temp
2018-Apr-09 12:54N 36°08' E 015°12'717.2
2018-Apr-09 12:30N 36°10' E 015°03'817.0
2018-Apr-09 12:00N 36°13' E 014°53'916.9
2018-Apr-09 11:30N 36°15' E 014°43'816.9
2018-Apr-09 11:00N 36°18' E 014°33'816.7
2018-Apr-09 10:30N 36°20' E 014°23'816.8
2018-Apr-09 10:00N 36°23' E 014°14'816.9
2018-Apr-09 09:30N 36°25' E 014°04'816.8
2018-Apr-09 09:00N 36°28' E 013°54'916.7
2018-Apr-09 08:29N 36°30' E 013°43'916.7
2018-Apr-09 07:58N 36°33' E 013°33'  
2018-Apr-07 00:43N 36°02' W 004°60'416.3
2018-Apr-07 00:29N 36°01' W 005°04'918.4
2018-Apr-07 00:00N 35°60' W 005°15'918.8
2018-Apr-06 23:30N 35°58' W 005°26'86417.0
2018-Apr-04 20:42N 37°18' W 023°18'317.3
2018-Apr-04 20:30N 37°18' W 023°22'917.3
2018-Apr-04 20:00N 37°19' W 023°33'816.6
2018-Apr-04 19:30N 37°20' W 023°43'917.1
2018-Apr-04 19:00N 37°20' W 023°54'816.9
2018-Apr-04 18:30N 37°21' W 024°05'816.8
2018-Apr-04 18:00N 37°22' W 024°15'817.0
2018-Apr-04 17:30N 37°22' W 024°26'917.2
2018-Apr-04 17:00N 37°23' W 024°37'918.0
2018-Apr-04 16:30N 37°24' W 024°48'917.5
2018-Apr-04 16:00N 37°24' W 024°59'816.4
2018-Apr-04 15:30N 37°24' W 025°10'816.7
2018-Apr-04 15:00N 37°24' W 025°20'817.0
2018-Apr-04 14:30N 37°25' W 025°31'816.7
2018-Apr-04 14:00N 37°25' W 025°41'816.7
2018-Apr-04 13:30N 37°25' W 025°52'816.7
2018-Apr-04 13:00N 37°26' W 026°02'816.3
2018-Apr-04 12:31N 37°26' W 026°12'916.5
2018-Apr-04 11:59N 37°26' W 026°23'816.4
2018-Apr-04 11:30N 37°26' W 026°33'2616.8
2018-Apr-04 09:59N 37°27' W 027°05'1016.9
2018-Apr-04 09:24N 37°27' W 027°18'717.1
2018-Apr-04 09:00N 37°27' W 027°26'917.8
2018-Apr-04 08:30N 37°28' W 027°38'917.5
2018-Apr-04 08:00N 37°28' W 027°49'917.4
2018-Apr-04 07:30N 37°28' W 027°59'917.7
2018-Apr-04 07:00N 37°29' W 028°11'917.7
2018-Apr-04 06:30N 37°29' W 028°22'917.5
2018-Apr-04 06:00N 37°29' W 028°33'917.6
2018-Apr-04 05:31N 37°29' W 028°44'917.4
2018-Apr-04 05:00N 37°30' W 028°55'917.3
2018-Apr-04 04:30N 37°30' W 029°06'917.2
2018-Apr-04 03:59N 37°31' W 029°17'817.4
2018-Apr-04 03:30N 37°31' W 029°28'917.3
2018-Apr-04 03:01N 37°31' W 029°38'917.4
2018-Apr-04 02:30N 37°31' W 029°50'917.6
2018-Apr-04 01:58N 37°32' W 030°01'817.2
2018-Apr-04 01:30N 37°32' W 030°11'  

Dump ship's entire track history